ALG weather

Houari Boumediene Airport
Algiers, Boumerd├Ęs Province, Algeria

Public forecast

Using degrees Celsius for public forecast. Weather courtesy of forecast.io.

Current aviation weather report (METAR) for Houari Boumediene Airport

Retrieved 2020/06/05 02:00 UTC (23 minutes ago):

DAAG 050200Z 26005KT 9999 FEW026TCU FEW030CB SCT040 19/17 Q1010

Aviation forecast (TAF) for Houari Boumediene Airport

Retrieved 2020-06-05 00:00 UTC (2 hours ago):

TAF DAAG 042300Z 0500/0524 28012KT 8000 FEW026 TEMPO 0500/0505 28015G25KT 4000 -TSRA FEW030CB BECMG 0518/0521 VRB02KT